Time;durP1;ratioP1;P1;durP2;ratioP2;P2;SDS_P1;SDS_P2;PMS_P1;PMS_P2;Temp;Humidity;BMP_temperature;BMP_pressure;BME280_temperature;BME280_humidity;BME280_pressure;Samples;Min_cycle;Max_cycle;Signal;HPM_P1;HPM_P2
2021/10/06 00:00:30;;;;;;;3.42;0.98;;;;;;;;;;5033478;28;20056;-61
2021/10/06 00:02:55;;;;;;;6.28;0.93;;;;;;;;;;5034094;28;20044;-61
2021/10/06 00:05:21;;;;;;;7.80;1.13;;;;;;;;;;5034147;28;20029;-61
2021/10/06 00:07:46;;;;;;;4.03;1.15;;;;;;;;;;5038635;28;20298;-61
2021/10/06 00:10:12;;;;;;;4.10;1.33;;;;;;;;;;5042368;28;20037;-61
2021/10/06 00:12:38;;;;;;;6.38;1.45;;;;;;;;;;5031921;28;20034;-61
2021/10/06 00:15:06;;;;;;;4.50;0.95;;;;;;;;;;5037509;28;20036;-61
2021/10/06 00:17:32;;;;;;;11.13;1.25;;;;;;;;;;5033430;28;20044;-61
2021/10/06 00:19:58;;;;;;;4.57;0.80;;;;;;;;;;5043683;28;20029;-61
2021/10/06 00:22:23;;;;;;;5.93;0.80;;;;;;;;;;5033818;28;20037;-62
2021/10/06 00:24:49;;;;;;;4.20;0.70;;;;;;;;;;5036796;28;20120;-61
2021/10/06 00:27:15;;;;;;;10.15;1.00;;;;;;;;;;5034282;28;20116;-61
2021/10/06 00:29:41;;;;;;;3.10;0.95;;;;;;;;;;5033604;28;20120;-60
2021/10/06 00:32:06;;;;;;;3.05;0.77;;;;;;;;;;5034872;28;20107;-61
2021/10/06 00:34:32;;;;;;;6.40;0.90;;;;;;;;;;5033178;28;20150;-61
2021/10/06 00:36:57;;;;;;;9.55;1.40;;;;;;;;;;5037509;28;20037;-62
2021/10/06 00:39:23;;;;;;;3.63;0.77;;;;;;;;;;5034132;28;20483;-61
2021/10/06 00:41:48;;;;;;;6.15;0.95;;;;;;;;;;5037801;28;20527;-62
2021/10/06 00:44:18;;;;;;;5.57;0.77;;;;;;;;;;5034702;28;20036;-62
2021/10/06 00:46:44;;;;;;;2.05;0.82;;;;;;;;;;5038818;28;20113;-61
2021/10/06 00:49:11;;;;;;;4.20;0.95;;;;;;;;;;5035645;28;20102;-61
2021/10/06 00:51:38;;;;;;;7.65;1.17;;;;;;;;;;5036869;28;20605;-62
2021/10/06 00:54:04;;;;;;;11.27;1.80;;;;;;;;;;5035468;28;20119;-61
2021/10/06 00:56:29;;;;;;;2.50;0.90;;;;;;;;;;5032753;28;20064;-62
2021/10/06 00:58:55;;;;;;;3.65;0.75;;;;;;;;;;5040687;28;20058;-61
2021/10/06 01:01:20;;;;;;;2.45;0.63;;;;;;;;;;5030904;28;20548;-61
2021/10/06 01:03:46;;;;;;;5.65;1.10;;;;;;;;;;5036277;28;20029;-62
2021/10/06 01:06:12;;;;;;;8.25;1.10;;;;;;;;;;5040769;28;20069;-61
2021/10/06 01:08:37;;;;;;;5.00;0.80;;;;;;;;;;5036497;28;20517;-61
2021/10/06 01:11:03;;;;;;;6.78;0.82;;;;;;;;;;5034495;28;20028;-61
2021/10/06 01:13:29;;;;;;;6.15;1.13;;;;;;;;;;5034344;28;20107;-61
2021/10/06 01:15:56;;;;;;;6.38;1.08;;;;;;;;;;5034833;28;20020;-61
2021/10/06 01:18:21;;;;;;;4.30;0.80;;;;;;;;;;5032355;28;20438;-60
2021/10/06 01:20:47;;;;;;;3.00;0.60;;;;;;;;;;5033613;28;20135;-61
2021/10/06 01:23:16;;;;;;;5.85;0.93;;;;;;;;;;5033359;28;20033;-61
2021/10/06 01:25:41;;;;;;;3.08;1.13;;;;;;;;;;5032016;28;20036;-61
2021/10/06 01:28:07;;;;;;;4.35;0.70;;;;;;;;;;5032197;28;20024;-61
2021/10/06 01:30:33;;;;;;;4.25;0.70;;;;;;;;;;5035687;28;20487;-60
2021/10/06 01:32:58;;;;;;;2.47;0.75;;;;;;;;;;5041565;28;20029;-61
2021/10/06 01:35:24;;;;;;;5.50;0.73;;;;;;;;;;5031601;28;20098;-61
2021/10/06 01:37:49;;;;;;;4.78;0.70;;;;;;;;;;5034031;28;20082;-61
2021/10/06 01:40:18;;;;;;;5.35;1.05;;;;;;;;;;5038539;28;20593;-61
2021/10/06 01:42:44;;;;;;;3.88;0.52;;;;;;;;;;5034499;28;20082;-61
2021/10/06 01:45:23;;;;;;;5.50;1.08;;;;;;;;;;5034517;28;20017;-61
2021/10/06 01:47:49;;;;;;;9.68;0.82;;;;;;;;;;5035826;28;20028;-62
2021/10/06 01:50:23;;;;;;;9.38;1.40;;;;;;;;;;5030191;28;20037;-62
2021/10/06 01:52:50;;;;;;;12.23;1.30;;;;;;;;;;5033707;28;20040;-61
2021/10/06 01:55:15;;;;;;;6.32;0.77;;;;;;;;;;5033200;28;20123;-61
2021/10/06 01:57:41;;;;;;;5.43;1.08;;;;;;;;;;5036348;28;20456;-62
2021/10/06 02:00:07;;;;;;;4.95;1.10;;;;;;;;;;5031055;28;20301;-61
2021/10/06 02:02:32;;;;;;;7.70;1.58;;;;;;;;;;5034461;28;20029;-61
2021/10/06 02:04:58;;;;;;;6.95;1.73;;;;;;;;;;5031154;28;20216;-61
2021/10/06 02:07:23;;;;;;;4.80;0.77;;;;;;;;;;5034057;28;20032;-61
2021/10/06 02:09:49;;;;;;;2.08;0.95;;;;;;;;;;5036502;28;20040;-61
2021/10/06 02:12:14;;;;;;;4.20;0.80;;;;;;;;;;5031468;28;20047;-61
2021/10/06 02:14:40;;;;;;;3.92;0.90;;;;;;;;;;5036924;28;20078;-62
2021/10/06 02:17:05;;;;;;;4.95;0.80;;;;;;;;;;5035746;28;20468;-61
2021/10/06 02:19:31;;;;;;;7.03;1.42;;;;;;;;;;5034590;28;20021;-61
2021/10/06 02:21:56;;;;;;;3.88;0.95;;;;;;;;;;5036007;28;20467;-61
2021/10/06 02:24:22;;;;;;;3.30;0.93;;;;;;;;;;5034319;28;20036;-61
2021/10/06 02:26:47;;;;;;;2.83;0.85;;;;;;;;;;5033704;28;20399;-60
2021/10/06 02:29:13;;;;;;;2.42;0.73;;;;;;;;;;5038741;28;20036;-61
2021/10/06 02:31:38;;;;;;;4.03;1.00;;;;;;;;;;5039916;28;20022;-61
2021/10/06 02:34:03;;;;;;;4.32;0.90;;;;;;;;;;5033422;28;20171;-61
2021/10/06 02:36:29;;;;;;;6.07;0.80;;;;;;;;;;5043361;28;20045;-61
2021/10/06 02:38:55;;;;;;;5.30;1.00;;;;;;;;;;5037492;28;20033;-61
2021/10/06 02:41:20;;;;;;;5.13;1.00;;;;;;;;;;5042786;28;20472;-61
2021/10/06 02:43:46;;;;;;;5.28;1.10;;;;;;;;;;5039291;28;20112;-61
2021/10/06 02:46:11;;;;;;;8.60;1.02;;;;;;;;;;5037208;28;20134;-61
2021/10/06 02:48:37;;;;;;;11.70;1.10;;;;;;;;;;5034376;28;20052;-61
2021/10/06 02:51:02;;;;;;;1.08;0.57;;;;;;;;;;5043823;28;20039;-61
2021/10/06 02:53:28;;;;;;;6.68;1.40;;;;;;;;;;5037107;28;20412;-62
2021/10/06 02:55:53;;;;;;;9.90;1.35;;;;;;;;;;5040159;28;20037;-62
2021/10/06 02:58:19;;;;;;;1.60;0.70;;;;;;;;;;5032755;28;20511;-62
2021/10/06 03:00:44;;;;;;;6.53;0.90;;;;;;;;;;5041962;28;20061;-61
2021/10/06 03:03:10;;;;;;;4.22;0.90;;;;;;;;;;5037221;28;20033;-61
2021/10/06 03:05:35;;;;;;;2.63;0.80;;;;;;;;;;5037249;28;20048;-62
2021/10/06 03:08:01;;;;;;;6.25;0.90;;;;;;;;;;5035774;28;20041;-62
2021/10/06 03:10:26;;;;;;;8.77;1.27;;;;;;;;;;5036477;28;20512;-61
2021/10/06 03:12:52;;;;;;;8.02;1.17;;;;;;;;;;5036722;28;20033;-62
2021/10/06 03:15:17;;;;;;;3.05;1.15;;;;;;;;;;5043626;28;20103;-62
2021/10/06 03:17:43;;;;;;;6.65;0.75;;;;;;;;;;5031186;28;20037;-61
2021/10/06 03:20:10;;;;;;;15.25;1.88;;;;;;;;;;5035456;28;20057;-61
2021/10/06 03:22:35;;;;;;;3.38;0.68;;;;;;;;;;5041661;28;20028;-62
2021/10/06 03:25:03;;;;;;;8.30;0.80;;;;;;;;;;5039396;28;20033;-62
2021/10/06 03:27:28;;;;;;;3.90;0.43;;;;;;;;;;5035620;28;20035;-62
2021/10/06 03:29:54;;;;;;;6.55;0.80;;;;;;;;;;5032946;28;20399;-62
2021/10/06 03:32:19;;;;;;;4.57;0.60;;;;;;;;;;5036614;28;20041;-62
2021/10/06 03:34:45;;;;;;;1.60;0.50;;;;;;;;;;5037934;28;20024;-61
2021/10/06 03:37:10;;;;;;;4.18;0.50;;;;;;;;;;5036144;28;20451;-62
2021/10/06 03:39:36;;;;;;;5.18;0.68;;;;;;;;;;5039234;28;20039;-62
2021/10/06 03:42:02;;;;;;;10.35;0.80;;;;;;;;;;5041186;28;20487;-62
2021/10/06 03:44:28;;;;;;;5.93;1.27;;;;;;;;;;5035444;28;20032;-61
2021/10/06 03:46:53;;;;;;;6.53;0.80;;;;;;;;;;5037873;28;20037;-62
2021/10/06 03:49:19;;;;;;;9.10;1.05;;;;;;;;;;5038163;28;20091;-62
2021/10/06 03:51:44;;;;;;;6.95;0.60;;;;;;;;;;5035262;28;20025;-62
2021/10/06 03:54:10;;;;;;;4.00;0.60;;;;;;;;;;5036683;28;20136;-62
2021/10/06 03:56:35;;;;;;;5.90;0.65;;;;;;;;;;5038019;28;20027;-62
2021/10/06 03:59:01;;;;;;;3.03;0.40;;;;;;;;;;5032277;28;20127;-62
2021/10/06 04:01:26;;;;;;;3.20;0.75;;;;;;;;;;5040062;28;20482;-62
2021/10/06 04:03:52;;;;;;;6.07;1.00;;;;;;;;;;5039869;28;20088;-61
2021/10/06 04:06:17;;;;;;;5.28;0.77;;;;;;;;;;5034971;28;20034;-61
2021/10/06 04:08:43;;;;;;;3.70;0.57;;;;;;;;;;5037173;28;20033;-63
2021/10/06 04:11:08;;;;;;;5.75;0.70;;;;;;;;;;5036130;28;20116;-62
2021/10/06 04:13:34;;;;;;;6.25;0.52;;;;;;;;;;5037709;28;20037;-62
2021/10/06 04:15:59;;;;;;;5.35;0.40;;;;;;;;;;5031724;28;20116;-62
2021/10/06 04:18:25;;;;;;;2.67;0.40;;;;;;;;;;5038752;28;20137;-62
2021/10/06 04:20:50;;;;;;;9.13;0.82;;;;;;;;;;5040480;28;20119;-62
2021/10/06 04:23:16;;;;;;;2.40;0.63;;;;;;;;;;5036196;28;20430;-62
2021/10/06 04:25:41;;;;;;;4.88;0.40;;;;;;;;;;5034519;28;20488;-62
2021/10/06 04:28:07;;;;;;;7.72;0.68;;;;;;;;;;5031608;28;20048;-62
2021/10/06 04:30:32;;;;;;;4.95;0.30;;;;;;;;;;5037261;28;20612;-62
2021/10/06 04:32:58;;;;;;;3.58;0.22;;;;;;;;;;5037729;28;20519;-61
2021/10/06 04:35:23;;;;;;;4.75;0.65;;;;;;;;;;5034004;28;20033;-61
2021/10/06 04:37:49;;;;;;;2.30;0.25;;;;;;;;;;5042582;28;20033;-62
2021/10/06 04:40:15;;;;;;;2.92;0.35;;;;;;;;;;5037827;28;20498;-61
2021/10/06 04:42:42;;;;;;;3.75;0.63;;;;;;;;;;5039759;28;20051;-60
2021/10/06 04:45:08;;;;;;;1.55;0.30;;;;;;;;;;5034747;28;20079;-61
2021/10/06 04:47:33;;;;;;;2.55;0.32;;;;;;;;;;5034726;28;20044;-61
2021/10/06 04:49:59;;;;;;;4.93;0.40;;;;;;;;;;5031985;28;20503;-62
2021/10/06 04:52:24;;;;;;;6.03;0.50;;;;;;;;;;5030295;28;20040;-62
2021/10/06 04:54:52;;;;;;;7.35;0.60;;;;;;;;;;5035188;28;20069;-61
2021/10/06 04:57:19;;;;;;;3.17;0.30;;;;;;;;;;5035015;28;20052;-62
2021/10/06 04:59:44;;;;;;;3.33;0.60;;;;;;;;;;5034496;28;20033;-62
2021/10/06 05:02:09;;;;;;;9.82;0.43;;;;;;;;;;5037873;28;20045;-62
2021/10/06 05:04:35;;;;;;;5.22;0.40;;;;;;;;;;5032092;28;20042;-62
2021/10/06 05:07:00;;;;;;;2.17;0.20;;;;;;;;;;5037982;28;20104;-62
2021/10/06 05:09:26;;;;;;;5.82;0.30;;;;;;;;;;5039591;28;20029;-62
2021/10/06 05:11:51;;;;;;;5.65;1.25;;;;;;;;;;5034910;28;20133;-62
2021/10/06 05:14:17;;;;;;;4.95;0.50;;;;;;;;;;5040464;28;20032;-62
2021/10/06 05:16:42;;;;;;;2.45;0.70;;;;;;;;;;5035083;28;20492;-62
2021/10/06 05:19:08;;;;;;;5.18;0.82;;;;;;;;;;5033581;28;20116;-62
2021/10/06 05:21:33;;;;;;;5.85;0.57;;;;;;;;;;5039288;28;20036;-62
2021/10/06 05:23:59;;;;;;;3.58;0.60;;;;;;;;;;5033323;28;20470;-62
2021/10/06 05:26:24;;;;;;;3.47;0.43;;;;;;;;;;5030966;28;20033;-62
2021/10/06 05:28:54;;;;;;;5.03;0.82;;;;;;;;;;5032265;28;20029;-62
2021/10/06 05:31:21;;;;;;;7.55;2.45;;;;;;;;;;5031399;28;20039;-62
2021/10/06 05:33:47;;;;;;;3.25;0.52;;;;;;;;;;5037284;28;20613;-62
2021/10/06 05:36:13;;;;;;;7.63;0.80;;;;;;;;;;5041261;28;20029;-62
2021/10/06 05:38:39;;;;;;;4.93;0.50;;;;;;;;;;5037862;28;20060;-62
2021/10/06 05:41:04;;;;;;;5.28;0.40;;;;;;;;;;5039559;28;20514;-63
2021/10/06 05:43:30;;;;;;;7.05;0.55;;;;;;;;;;5033565;28;20100;-61
2021/10/06 05:45:55;;;;;;;3.80;0.82;;;;;;;;;;5036032;28;20385;-62
2021/10/06 05:48:21;;;;;;;6.00;0.47;;;;;;;;;;5040063;28;20026;-62
2021/10/06 05:50:46;;;;;;;10.60;0.80;;;;;;;;;;5038358;28;20541;-62
2021/10/06 05:53:12;;;;;;;8.90;0.60;;;;;;;;;;5033063;28;20179;-62
2021/10/06 05:55:37;;;;;;;4.65;0.47;;;;;;;;;;5037484;28;20021;-62
2021/10/06 05:58:03;;;;;;;5.35;0.75;;;;;;;;;;5036926;28;20044;-62
2021/10/06 06:00:28;;;;;;;8.80;1.23;;;;;;;;;;5034069;28;20032;-62
2021/10/06 06:02:54;;;;;;;1.83;0.63;;;;;;;;;;5035570;28;20025;-62
2021/10/06 06:05:19;;;;;;;7.53;0.90;;;;;;;;;;5038294;28;20475;-62
2021/10/06 06:07:45;;;;;;;9.55;1.75;;;;;;;;;;5032471;28;20057;-61
2021/10/06 06:10:12;;;;;;;6.13;1.42;;;;;;;;;;5032382;28;20057;-62
2021/10/06 06:12:37;;;;;;;8.18;0.95;;;;;;;;;;5037579;28;20024;-61
2021/10/06 06:15:05;;;;;;;6.78;1.27;;;;;;;;;;5039930;28;20036;-62
2021/10/06 06:17:30;;;;;;;4.60;1.20;;;;;;;;;;5037973;28;20036;-62
2021/10/06 06:19:55;;;;;;;5.00;1.40;;;;;;;;;;5035325;28;20037;-62
2021/10/06 06:22:21;;;;;;;7.32;1.20;;;;;;;;;;5035288;28;20525;-62
2021/10/06 06:24:47;;;;;;;10.07;1.90;;;;;;;;;;5032557;28;20607;-62
2021/10/06 06:27:12;;;;;;;4.47;1.10;;;;;;;;;;5038454;28;20552;-62
2021/10/06 06:29:37;;;;;;;5.07;1.40;;;;;;;;;;5036451;28;20036;-62
2021/10/06 06:32:04;;;;;;;4.40;1.45;;;;;;;;;;5032387;28;20045;-62
2021/10/06 06:34:30;;;;;;;6.85;1.63;;;;;;;;;;5035312;28;20025;-62
2021/10/06 06:36:55;;;;;;;6.18;1.20;;;;;;;;;;5036922;28;20025;-62
2021/10/06 06:39:21;;;;;;;4.22;1.10;;;;;;;;;;5039618;28;20032;-62
2021/10/06 06:41:47;;;;;;;5.32;1.23;;;;;;;;;;5032426;28;20148;-63
2021/10/06 06:44:13;;;;;;;6.97;1.23;;;;;;;;;;5036794;28;20033;-62
2021/10/06 06:46:39;;;;;;;7.60;0.95;;;;;;;;;;5032167;28;20017;-62
2021/10/06 06:49:05;;;;;;;6.60;1.38;;;;;;;;;;5014467;28;20036;-62
2021/10/06 06:51:31;;;;;;;11.68;1.00;;;;;;;;;;5034221;28;20045;-63
2021/10/06 06:53:57;;;;;;;6.47;1.20;;;;;;;;;;5035440;28;20613;-65
2021/10/06 06:56:23;;;;;;;7.85;0.90;;;;;;;;;;5021376;28;20033;-63
2021/10/06 06:58:49;;;;;;;10.55;1.20;;;;;;;;;;5032407;28;20051;-63
2021/10/06 07:01:16;;;;;;;1.65;0.75;;;;;;;;;;5037557;28;20032;-62
2021/10/06 07:03:43;;;;;;;6.95;0.98;;;;;;;;;;5031270;28;20534;-63
2021/10/06 07:06:09;;;;;;;4.80;1.13;;;;;;;;;;5016573;28;20381;-63
2021/10/06 07:08:35;;;;;;;5.10;1.00;;;;;;;;;;5031213;28;20317;-62
2021/10/06 07:11:00;;;;;;;3.85;1.38;;;;;;;;;;5029914;28;20037;-63
2021/10/06 07:13:26;;;;;;;6.82;1.30;;;;;;;;;;5028670;28;20051;-62
2021/10/06 07:15:51;;;;;;;11.80;1.73;;;;;;;;;;5013106;28;20079;-62
2021/10/06 07:18:17;;;;;;;7.70;1.42;;;;;;;;;;5030159;28;20040;-61
2021/10/06 07:20:42;;;;;;;5.97;1.33;;;;;;;;;;5029246;28;20116;-61
2021/10/06 07:23:08;;;;;;;3.58;1.25;;;;;;;;;;5034384;28;20408;-62
2021/10/06 07:25:33;;;;;;;5.70;1.13;;;;;;;;;;5020473;28;20052;-62
2021/10/06 07:27:59;;;;;;;4.68;1.30;;;;;;;;;;5027861;28;20467;-66
2021/10/06 07:30:25;;;;;;;4.70;0.95;;;;;;;;;;5038243;28;20041;-63
2021/10/06 07:32:50;;;;;;;9.15;1.25;;;;;;;;;;5039984;28;20024;-62
2021/10/06 07:35:16;;;;;;;5.25;1.20;;;;;;;;;;5023477;28;20029;-63
2021/10/06 07:37:41;;;;;;;12.13;1.90;;;;;;;;;;5034018;28;20407;-62
2021/10/06 07:40:07;;;;;;;9.98;1.50;;;;;;;;;;5031728;28;20158;-62
2021/10/06 07:42:33;;;;;;;12.68;1.98;;;;;;;;;;5035194;28;20062;-62
2021/10/06 07:44:59;;;;;;;10.15;1.40;;;;;;;;;;5027841;28;20071;-62
2021/10/06 07:47:25;;;;;;;7.95;1.20;;;;;;;;;;5027730;28;20033;-62
2021/10/06 07:49:51;;;;;;;7.78;1.30;;;;;;;;;;5034191;28;20029;-62
2021/10/06 07:52:16;;;;;;;9.80;1.70;;;;;;;;;;5039457;28;20033;-63
2021/10/06 07:54:42;;;;;;;5.97;1.08;;;;;;;;;;5026830;28;20657;-62
2021/10/06 07:57:07;;;;;;;15.85;2.60;;;;;;;;;;5029706;28;20478;-62
2021/10/06 07:59:34;;;;;;;9.98;2.08;;;;;;;;;;5036863;28;20041;-62
2021/10/06 08:02:00;;;;;;;17.15;1.63;;;;;;;;;;5032983;28;20029;-62
2021/10/06 08:04:26;;;;;;;4.05;1.45;;;;;;;;;;5030967;28;20091;-62
2021/10/06 08:06:52;;;;;;;7.90;1.67;;;;;;;;;;5017515;28;20316;-65
2021/10/06 08:09:18;;;;;;;6.32;1.30;;;;;;;;;;5033620;28;20349;-64
2021/10/06 08:11:43;;;;;;;8.05;1.23;;;;;;;;;;5034116;28;20029;-65
2021/10/06 08:14:09;;;;;;;5.72;1.15;;;;;;;;;;5031040;28;20041;-65
2021/10/06 08:16:34;;;;;;;6.18;1.30;;;;;;;;;;5020300;28;20041;-64
2021/10/06 08:19:00;;;;;;;10.35;1.67;;;;;;;;;;5030587;28;20057;-66
2021/10/06 08:21:26;;;;;;;7.47;1.15;;;;;;;;;;5032568;28;20025;-64
2021/10/06 08:23:51;;;;;;;6.78;1.55;;;;;;;;;;5031801;28;20033;-65
2021/10/06 08:26:17;;;;;;;9.60;1.58;;;;;;;;;;5017516;28;20021;-65
2021/10/06 08:28:42;;;;;;;10.52;2.22;;;;;;;;;;5033787;28;20036;-63
2021/10/06 08:31:08;;;;;;;10.65;1.17;;;;;;;;;;5031990;28;20103;-64
2021/10/06 08:33:33;;;;;;;9.05;1.23;;;;;;;;;;5034687;28;20056;-65
2021/10/06 08:35:59;;;;;;;12.20;2.28;;;;;;;;;;5022936;28;20029;-65
2021/10/06 08:38:24;;;;;;;17.17;1.30;;;;;;;;;;5037527;28;20138;-66
2021/10/06 08:40:50;;;;;;;6.28;1.58;;;;;;;;;;5029472;28;20087;-64
2021/10/06 08:43:16;;;;;;;8.43;0.93;;;;;;;;;;5033512;28;20041;-65
2021/10/06 08:45:41;;;;;;;13.18;1.25;;;;;;;;;;5029296;28;20036;-66
2021/10/06 08:48:09;;;;;;;6.80;0.73;;;;;;;;;;5030314;28;20077;-65
2021/10/06 08:50:37;;;;;;;4.82;1.30;;;;;;;;;;5035439;28;20248;-65
2021/10/06 08:53:03;;;;;;;7.95;0.80;;;;;;;;;;5028343;28;20049;-65
2021/10/06 08:55:29;;;;;;;11.10;0.90;;;;;;;;;;5028155;28;20025;-65
2021/10/06 08:57:59;;;;;;;8.65;0.90;;;;;;;;;;5027999;28;20033;-64
2021/10/06 09:00:25;;;;;;;4.95;0.82;;;;;;;;;;5036760;28;20556;-64
2021/10/06 09:02:51;;;;;;;6.18;1.20;;;;;;;;;;5036693;28;20025;-66
2021/10/06 09:05:22;;;;;;;6.07;0.70;;;;;;;;;;5024562;28;20471;-62
2021/10/06 09:08:02;;;;;;;5.87;0.80;;;;;;;;;;5025609;28;20053;-65
2021/10/06 09:10:30;;;;;;;10.70;1.23;;;;;;;;;;5033652;28;20507;-64
2021/10/06 09:13:02;;;;;;;9.13;0.68;;;;;;;;;;5034600;28;20029;-65
2021/10/06 09:15:39;;;;;;;;;;;;;;;;;;5026643;28;20067;-63
2021/10/06 09:18:05;;;;;;;8.68;0.60;;;;;;;;;;5028345;28;19917;-64
2021/10/06 09:20:36;;;;;;;7.30;0.47;;;;;;;;;;5036353;28;20099;-64
2021/10/06 09:23:08;;;;;;;7.82;0.80;;;;;;;;;;5035610;28;20124;-64
2021/10/06 09:25:53;;;;;;;11.23;1.10;;;;;;;;;;5027564;28;20305;-65
2021/10/06 09:28:33;;;;;;;16.27;0.95;;;;;;;;;;5027057;28;20072;-65
2021/10/06 09:31:07;;;;;;;6.65;0.47;;;;;;;;;;5035444;28;20032;-65
2021/10/06 09:33:44;;;;;;;3.58;0.50;;;;;;;;;;5031877;28;20036;-65
2021/10/06 09:36:35;;;;;;;8.85;0.77;;;;;;;;;;5019975;28;20068;-63
2021/10/06 09:39:06;;;;;;;5.82;0.60;;;;;;;;;;5034067;28;20110;-64
2021/10/06 09:41:39;;;;;;;4.60;0.55;;;;;;;;;;5034707;28;20833;-64
2021/10/06 09:44:17;;;;;;;5.60;0.60;;;;;;;;;;5044106;28;20355;-64
2021/10/06 09:46:50;;;;;;;9.70;0.60;;;;;;;;;;5013494;28;20021;-63
2021/10/06 09:49:19;;;;;;;8.40;0.88;;;;;;;;;;5032497;28;20066;-62
2021/10/06 09:51:45;;;;;;;9.73;0.68;;;;;;;;;;5038402;28;20517;-63
2021/10/06 09:54:11;;;;;;;8.52;0.85;;;;;;;;;;5035805;28;20369;-62
2021/10/06 09:56:45;;;;;;;11.27;0.55;;;;;;;;;;5028687;28;20032;-62
2021/10/06 09:59:13;;;;;;;8.43;0.60;;;;;;;;;;5037938;28;20029;-63
2021/10/06 10:01:43;;;;;;;3.53;0.40;;;;;;;;;;5034047;28;20049;-62
2021/10/06 10:04:10;;;;;;;13.52;0.65;;;;;;;;;;5050151;28;20435;-62
2021/10/06 10:06:37;;;;;;;11.18;0.63;;;;;;;;;;5021709;28;20033;-63
2021/10/06 10:09:06;;;;;;;9.25;0.70;;;;;;;;;;5036655;28;20067;-64
2021/10/06 10:11:35;;;;;;;7.38;0.45;;;;;;;;;;5036630;28;20076;-65
2021/10/06 10:14:03;;;;;;;6.15;0.40;;;;;;;;;;5030153;28;20028;-64
2021/10/06 10:16:29;;;;;;;6.25;0.30;;;;;;;;;;5016663;28;20029;-63
2021/10/06 10:19:02;;;;;;;9.43;0.50;;;;;;;;;;5035799;28;20538;-63
2021/10/06 10:21:29;;;;;;;10.55;0.75;;;;;;;;;;5031661;28;20054;-64
2021/10/06 10:24:42;;;;;;;7.40;0.40;;;;;;;;;;5032306;28;20029;-64
2021/10/06 10:27:10;;;;;;;7.72;1.58;;;;;;;;;;5008832;28;20041;-64
2021/10/06 10:29:46;;;;;;;7.72;0.43;;;;;;;;;;5013836;28;20056;-63
2021/10/06 10:32:17;;;;;;;4.20;0.57;;;;;;;;;;5026876;28;20060;-62
2021/10/06 10:35:03;;;;;;;4.47;0.40;;;;;;;;;;5024478;28;20029;-61
2021/10/06 10:37:58;;;;;;;10.50;0.25;;;;;;;;;;5021277;28;20112;-64
2021/10/06 10:40:32;;;;;;;4.07;0.60;;;;;;;;;;5028817;28;20040;-63
2021/10/06 10:42:59;;;;;;;10.40;0.40;;;;;;;;;;5032829;28;20345;-62
2021/10/06 10:45:47;;;;;;;4.43;0.40;;;;;;;;;;5019097;28;20029;-62
2021/10/06 10:48:16;;;;;;;6.07;0.52;;;;;;;;;;5032618;28;20036;-61
2021/10/06 10:50:44;;;;;;;6.35;0.45;;;;;;;;;;5033403;28;20072;-63
2021/10/06 10:53:10;;;;;;;7.45;0.65;;;;;;;;;;5034805;28;20041;-63
2021/10/06 10:55:58;;;;;;;6.47;1.58;;;;;;;;;;5023091;28;20059;-62
2021/10/06 10:58:38;;;;;;;5.35;0.40;;;;;;;;;;5036919;28;20490;-62
2021/10/06 11:01:06;;;;;;;3.80;0.43;;;;;;;;;;5039819;28;20025;-62
2021/10/06 11:03:33;;;;;;;1.38;0.20;;;;;;;;;;5037422;28;20832;-62
2021/10/06 11:05:58;;;;;;;4.95;0.40;;;;;;;;;;5023119;28;20090;-63
2021/10/06 11:08:31;;;;;;;4.07;0.40;;;;;;;;;;5058433;28;20033;-62
2021/10/06 11:11:12;;;;;;;4.30;0.73;;;;;;;;;;5032417;28;20037;-62
2021/10/06 11:13:46;;;;;;;9.00;0.60;;;;;;;;;;5035460;28;20115;-63
2021/10/06 11:16:12;;;;;;;7.03;0.55;;;;;;;;;;5022822;28;20060;-62
2021/10/06 11:18:54;;;;;;;3.13;0.57;;;;;;;;;;5030780;28;20156;-62
2021/10/06 11:21:38;;;;;;;2.88;0.85;;;;;;;;;;5036987;28;20080;-62
2021/10/06 11:24:19;;;;;;;7.32;0.43;;;;;;;;;;5039943;28;20123;-62
2021/10/06 11:26:45;;;;;;;5.13;0.35;;;;;;;;;;5018349;28;20033;-62
2021/10/06 11:29:10;;;;;;;6.00;0.32;;;;;;;;;;5038591;28;20434;-64
2021/10/06 11:31:38;;;;;;;8.52;0.60;;;;;;;;;;5054697;28;20124;-64
2021/10/06 11:34:07;;;;;;;5.00;0.80;;;;;;;;;;5036859;28;20040;-62
2021/10/06 11:36:34;;;;;;;5.22;0.68;;;;;;;;;;5019846;28;20048;-63
2021/10/06 11:39:09;;;;;;;5.32;0.70;;;;;;;;;;5034311;28;20025;-64
2021/10/06 11:41:40;;;;;;;8.57;0.60;;;;;;;;;;5037498;28;20033;-62
2021/10/06 11:44:06;;;;;;;4.67;0.50;;;;;;;;;;5035963;28;20338;-62
2021/10/06 11:46:33;;;;;;;4.90;0.30;;;;;;;;;;5024363;28;20021;-62
2021/10/06 11:49:06;;;;;;;2.80;0.30;;;;;;;;;;5038036;28;20048;-62
2021/10/06 11:51:49;;;;;;;6.22;0.65;;;;;;;;;;5033718;28;20044;-64
2021/10/06 11:54:16;;;;;;;8.77;0.50;;;;;;;;;;5016656;28;20045;-62
2021/10/06 11:56:43;;;;;;;11.90;0.63;;;;;;;;;;5034494;28;20029;-59
2021/10/06 11:59:19;;;;;;;3.92;0.70;;;;;;;;;;5034146;28;20029;-59
2021/10/06 12:02:02;;;;;;;10.52;0.90;;;;;;;;;;5041862;28;20102;-59
2021/10/06 12:04:35;;;;;;;7.85;0.80;;;;;;;;;;5033391;28;20028;-59
2021/10/06 12:07:06;;;;;;;8.15;0.55;;;;;;;;;;5032425;28;20037;-59
2021/10/06 12:09:36;;;;;;;6.55;0.75;;;;;;;;;;5034887;28;20451;-59
2021/10/06 12:12:08;;;;;;;3.38;0.57;;;;;;;;;;5039204;28;20265;-58
2021/10/06 12:14:41;;;;;;;11.63;0.63;;;;;;;;;;5035754;28;20033;-59
2021/10/06 12:17:14;;;;;;;6.32;1.10;;;;;;;;;;5035158;28;20049;-59
2021/10/06 12:19:42;;;;;;;10.00;0.82;;;;;;;;;;5032192;28;20517;-59
2021/10/06 12:22:09;;;;;;;13.20;0.77;;;;;;;;;;5031680;28;20071;-59
2021/10/06 12:24:39;;;;;;;6.47;1.20;;;;;;;;;;5034660;28;20040;-59
2021/10/06 12:27:04;;;;;;;10.27;1.00;;;;;;;;;;5033747;28;20040;-58
2021/10/06 12:29:31;;;;;;;3.45;0.38;;;;;;;;;;5036132;28;20038;-59
2021/10/06 12:32:16;;;;;;;3.20;0.50;;;;;;;;;;5033677;28;20108;-59
2021/10/06 12:34:43;;;;;;;2.40;0.47;;;;;;;;;;5030560;28;20033;-59
2021/10/06 12:37:12;;;;;;;6.05;0.50;;;;;;;;;;5034932;28;20026;-59
2021/10/06 12:39:38;;;;;;;4.65;0.70;;;;;;;;;;5041865;28;20112;-59
2021/10/06 12:42:06;;;;;;;7.35;0.70;;;;;;;;;;5031072;28;20171;-59
2021/10/06 12:44:40;;;;;;;11.13;1.10;;;;;;;;;;5031449;28;20043;-58
2021/10/06 12:47:18;;;;;;;11.02;1.15;;;;;;;;;;5037096;28;20500;-59
2021/10/06 12:49:53;;;;;;;4.20;0.45;;;;;;;;;;5036680;28;20571;-59
2021/10/06 12:52:28;;;;;;;3.72;0.40;;;;;;;;;;5030383;28;20030;-59
2021/10/06 12:55:11;;;;;;;5.38;0.98;;;;;;;;;;5034859;28;20056;-59
2021/10/06 12:57:39;;;;;;;17.77;1.40;;;;;;;;;;5034444;28;20025;-59
2021/10/06 13:00:22;;;;;;;12.38;0.80;;;;;;;;;;5027633;28;20123;-59
2021/10/06 13:02:51;;;;;;;7.72;1.10;;;;;;;;;;5034229;28;20030;-59
2021/10/06 13:05:17;;;;;;;5.68;0.80;;;;;;;;;;5035968;28;20021;-59
2021/10/06 13:07:43;;;;;;;12.13;0.95;;;;;;;;;;5030163;28;20586;-59
2021/10/06 13:10:09;;;;;;;15.27;1.40;;;;;;;;;;5034414;28;20087;-59
2021/10/06 13:12:35;;;;;;;10.52;1.60;;;;;;;;;;5029591;28;20037;-59
2021/10/06 13:15:01;;;;;;;3.90;0.90;;;;;;;;;;5034991;28;20032;-59
2021/10/06 13:17:27;;;;;;;3.85;0.75;;;;;;;;;;5029498;28;20425;-58
2021/10/06 13:19:52;;;;;;;5.53;0.80;;;;;;;;;;5034813;28;20093;-58
2021/10/06 13:22:18;;;;;;;13.90;1.63;;;;;;;;;;5035009;28;20045;-59
2021/10/06 13:24:43;;;;;;;4.68;0.70;;;;;;;;;;5041015;28;20044;-59
2021/10/06 13:27:10;;;;;;;3.75;0.70;;;;;;;;;;5037091;28;20398;-59
2021/10/06 13:29:36;;;;;;;10.52;1.48;;;;;;;;;;5042080;28;20013;-59
2021/10/06 13:32:03;;;;;;;16.02;1.33;;;;;;;;;;5040350;28;20249;-59
2021/10/06 13:34:29;;;;;;;7.78;1.23;;;;;;;;;;5032478;28;20036;-59
2021/10/06 13:36:55;;;;;;;5.43;0.93;;;;;;;;;;5031986;28;20388;-59
2021/10/06 13:39:21;;;;;;;5.68;0.60;;;;;;;;;;5032950;28;20377;-59
2021/10/06 13:41:47;;;;;;;4.65;0.68;;;;;;;;;;5033312;28;20041;-59
2021/10/06 13:44:12;;;;;;;6.88;1.00;;;;;;;;;;5036222;28;20037;-59
2021/10/06 13:46:38;;;;;;;11.45;0.77;;;;;;;;;;5036177;28;20025;-59
2021/10/06 13:49:03;;;;;;;16.70;1.30;;;;;;;;;;5037251;28;20523;-59
2021/10/06 13:51:29;;;;;;;6.68;0.98;;;;;;;;;;5029044;28;20043;-59
2021/10/06 13:53:56;;;;;;;7.22;0.88;;;;;;;;;;5036649;28;20060;-59
2021/10/06 13:56:24;;;;;;;6.43;1.30;;;;;;;;;;5034624;28;20072;-59
2021/10/06 13:58:51;;;;;;;3.88;0.80;;;;;;;;;;5033369;28;20042;-59
2021/10/06 14:01:18;;;;;;;5.38;0.98;;;;;;;;;;5032469;28;20021;-59
2021/10/06 14:03:43;;;;;;;6.30;0.93;;;;;;;;;;5032458;28;20123;-59
2021/10/06 14:06:09;;;;;;;6.25;1.45;;;;;;;;;;5027917;28;20109;-59
2021/10/06 14:08:36;;;;;;;7.85;1.13;;;;;;;;;;5030832;28;20506;-59
2021/10/06 14:11:03;;;;;;;7.07;0.73;;;;;;;;;;5030160;28;20341;-59
2021/10/06 14:13:28;;;;;;;8.32;0.90;;;;;;;;;;5032334;28;20033;-59
2021/10/06 14:15:54;;;;;;;16.60;1.08;;;;;;;;;;5028528;28;20071;-58
2021/10/06 14:18:20;;;;;;;3.88;0.60;;;;;;;;;;5029500;28;20021;-59
2021/10/06 14:20:46;;;;;;;4.35;0.70;;;;;;;;;;5030471;28;20214;-59
2021/10/06 14:23:12;;;;;;;6.57;0.40;;;;;;;;;;5033923;28;20195;-57
2021/10/06 14:25:37;;;;;;;7.38;0.80;;;;;;;;;;5038084;28;20478;-58
2021/10/06 14:28:04;;;;;;;2.75;0.68;;;;;;;;;;5031155;28;20033;-59
2021/10/06 14:30:29;;;;;;;3.85;0.70;;;;;;;;;;5033799;28;20027;-59
2021/10/06 14:32:55;;;;;;;6.57;0.68;;;;;;;;;;5039399;28;20029;-59
2021/10/06 14:35:20;;;;;;;1.98;0.70;;;;;;;;;;5038066;28;20032;-59
2021/10/06 14:37:46;;;;;;;10.95;1.00;;;;;;;;;;5033597;28;20102;-59
2021/10/06 14:40:13;;;;;;;4.32;1.00;;;;;;;;;;5031444;28;20580;-59
2021/10/06 14:42:39;;;;;;;13.93;1.35;;;;;;;;;;5040052;28;20025;-59